Time;durP1;ratioP1;P1;durP2;ratioP2;P2;SDS_P1;SDS_P2;PMS_P1;PMS_P2;Temp;Humidity;BMP_temperature;BMP_pressure;BME280_temperature;BME280_humidity;BME280_pressure;Samples;Min_cycle;Max_cycle;Signal;HPM_P1;HPM_P2
2023/10/12 00:02:26;;;;;;;5.63;3.60;;;22.40;54.40;;;;;;4988452;28;20129;-46
2023/10/12 00:05:00;;;;;;;8.25;4.20;;;22.40;54.30;;;;;;4988339;28;20046;-48
2023/10/12 00:07:38;;;;;;;6.30;3.40;;;22.40;54.40;;;;;;4981413;28;20054;-47
2023/10/12 00:12:41;;;;;;;8.23;4.20;;;22.40;54.30;;;;;;4983941;28;20035;-48
2023/10/12 00:15:23;;;;;;;4.47;3.58;;;22.30;54.20;;;;;;4989391;28;20129;-46
2023/10/12 00:17:56;;;;;;;10.95;4.43;;;22.40;54.50;;;;;;4990187;28;20070;-47
2023/10/12 00:23:01;;;;;;;4.40;3.45;;;22.30;54.50;;;;;;4987907;28;20043;-45
2023/10/12 00:25:34;;;;;;;6.97;3.80;;;22.30;54.50;;;;;;4985914;28;20042;-45
2023/10/12 00:28:03;;;;;;;7.00;3.97;;;22.30;54.60;;;;;;4988300;28;20042;-47
2023/10/12 00:30:31;;;;;;;7.78;4.15;;;22.30;54.50;;;;;;4989147;28;20065;-45
2023/10/12 00:33:01;;;;;;;5.70;3.83;;;22.30;54.50;;;;;;4989880;28;20030;-45
2023/10/12 00:35:32;;;;;;;7.25;4.35;;;22.30;54.60;;;;;;4986101;28;20038;-49
2023/10/12 00:38:17;;;;;;;6.97;3.58;;;22.20;54.40;;;;;;4989497;28;20042;-46
2023/10/12 00:40:55;;;;;;;4.75;3.45;;;22.10;54.50;;;;;;4982598;28;20125;-46
2023/10/12 00:43:31;;;;;;;7.68;3.28;;;22.20;54.60;;;;;;4988591;28;20116;-47
2023/10/12 00:46:32;;;;;;;5.90;3.67;;;22.10;54.40;;;;;;4983271;28;20051;-49
2023/10/12 00:49:20;;;;;;;8.55;4.45;;;22.10;54.70;;;;;;4988039;28;20073;-46
2023/10/12 00:51:51;;;;;;;8.07;4.03;;;22.10;55.20;;;;;;4997978;28;20046;-45
2023/10/12 00:54:27;;;;;;;11.02;4.25;;;22.00;54.40;;;;;;4980978;28;20056;-50
2023/10/12 00:57:03;;;;;;;6.93;4.30;;;22.00;54.30;;;;;;4982387;28;20074;-46
2023/10/12 00:59:34;;;;;;;7.55;4.38;;;22.00;54.50;;;;;;4984673;28;20717;-50
2023/10/12 01:02:20;;;;;;;8.15;4.93;;;22.00;54.50;;;;;;4980503;28;20515;-47
2023/10/12 01:04:53;;;;;;;6.45;3.85;;;22.00;54.80;;;;;;4984193;28;20528;-45
2023/10/12 01:07:25;;;;;;;7.68;3.90;;;21.90;54.80;;;;;;4983800;28;20134;-46
2023/10/12 01:10:06;;;;;;;7.53;4.30;;;21.90;55.40;;;;;;4983793;28;20180;-47
2023/10/12 01:12:37;;;;;;;6.97;3.88;;;21.90;55.30;;;;;;4983086;28;20100;-50
2023/10/12 01:15:11;;;;;;;5.30;3.95;;;21.80;56.10;;;;;;4987306;28;20046;-48
2023/10/12 01:17:40;;;;;;;7.00;4.38;;;21.80;56.00;;;;;;4989418;28;20037;-46
2023/10/12 01:20:11;;;;;;;6.97;4.50;;;21.70;56.00;;;;;;4987800;28;20061;-47
2023/10/12 01:22:39;;;;;;;7.30;3.80;;;21.70;56.10;;;;;;4984173;28;20046;-49
2023/10/12 01:25:20;;;;;;;6.28;4.25;;;21.70;56.30;;;;;;4995095;28;20460;-47
2023/10/12 01:27:47;;;;;;;7.55;4.38;;;21.70;56.50;;;;;;4988403;28;20046;-46
2023/10/12 01:30:21;;;;;;;5.53;3.55;;;21.60;56.90;;;;;;4984538;28;20047;-46
2023/10/12 01:32:58;;;;;;;6.93;4.30;;;21.60;56.90;;;;;;4988869;28;20042;-46
2023/10/12 01:35:32;;;;;;;6.25;3.97;;;21.50;57.10;;;;;;4985659;28;20520;-50
2023/10/12 01:38:05;;;;;;;8.10;4.15;;;21.50;57.20;;;;;;4986389;28;20134;-47
2023/10/12 01:40:52;;;;;;;4.47;4.03;;;21.50;57.30;;;;;;4989372;28;20069;-49
2023/10/12 01:43:19;;;;;;;7.68;3.80;;;21.50;57.60;;;;;;4982047;28;20142;-47
2023/10/12 01:46:00;;;;;;;14.10;5.28;;;21.40;57.80;;;;;;4988132;28;20046;-46
2023/10/12 01:48:33;;;;;;;9.77;4.55;;;21.40;57.80;;;;;;4985486;28;20074;-46
2023/10/12 01:51:03;;;;;;;;;;;21.30;58.10;;;;;;4988371;28;20157;-47
2023/10/12 01:53:32;;;;;;;10.38;5.53;;;21.40;57.80;;;;;;4987667;28;19921;-46
2023/10/12 01:56:09;;;;;;;7.88;4.10;;;21.30;58.40;;;;;;4983939;28;20518;-46
2023/10/12 01:58:40;;;;;;;7.63;4.70;;;21.30;59.10;;;;;;4987838;28;20097;-46
2023/10/12 02:01:07;;;;;;;9.60;5.60;;;21.20;59.30;;;;;;4987046;28;20042;-46
2023/10/12 02:03:42;;;;;;;8.18;5.25;;;21.20;59.30;;;;;;4987858;28;20050;-44
2023/10/12 02:06:14;;;;;;;9.93;6.10;;;21.10;59.50;;;;;;4987040;28;20058;-48
2023/10/12 02:13:50;;;;;;;7.47;5.68;;;20.90;60.60;;;;;;4989655;28;20034;-46
2023/10/12 02:16:24;;;;;;;12.23;6.25;;;20.80;61.10;;;;;;4989110;28;20046;-47
2023/10/12 02:18:54;;;;;;;8.48;5.93;;;20.70;61.50;;;;;;4991616;28;20129;-46
2023/10/12 02:21:26;;;;;;;9.73;6.13;;;20.70;61.50;;;;;;4991788;28;20104;-48
2023/10/12 02:26:37;;;;;;;8.20;5.57;;;20.60;62.00;;;;;;4989087;28;20054;-46
2023/10/12 02:34:19;;;;;;;9.57;6.78;;;20.40;63.10;;;;;;4990039;28;20047;-45
2023/10/12 02:39:42;;;;;;;7.38;5.18;;;20.30;63.60;;;;;;4988697;28;20108;-50
2023/10/12 02:45:16;;;;;;;8.10;5.50;;;20.20;63.10;;;;;;4990600;28;20058;-46
2023/10/12 02:47:46;;;;;;;7.35;5.55;;;20.20;63.90;;;;;;4989335;28;20516;-47
2023/10/12 02:52:51;;;;;;;8.65;5.88;;;20.10;63.50;;;;;;4988080;28;20074;-49
2023/10/12 02:58:18;;;;;;;8.25;6.30;;;20.10;64.00;;;;;;4990530;28;20050;-47
2023/10/12 03:00:55;;;;;;;7.03;4.97;;;20.10;64.40;;;;;;4988000;28;20052;-46
2023/10/12 03:03:36;;;;;;;7.80;6.32;;;20.10;64.10;;;;;;4990119;28;20531;-45
2023/10/12 03:06:08;;;;;;;7.40;5.90;;;20.00;64.70;;;;;;4998193;28;20043;-49
2023/10/12 03:11:42;;;;;;;9.15;5.40;;;20.00;65.00;;;;;;4914266;29;20056;-49
2023/10/12 03:14:14;;;;;;;12.77;7.45;;;19.90;64.40;;;;;;4978333;28;20092;-47
2023/10/12 03:16:45;;;;;;;9.35;6.05;;;19.90;64.70;;;;;;4990107;28;20038;-50
2023/10/12 03:19:23;;;;;;;9.40;7.17;;;19.90;64.90;;;;;;4991315;28;20046;-47
2023/10/12 03:21:51;;;;;;;11.05;6.57;;;19.90;64.70;;;;;;4988410;28;20086;-46
2023/10/12 03:24:37;;;;;;;9.73;6.60;;;19.80;64.70;;;;;;4999008;28;20042;-46
2023/10/12 03:27:11;;;;;;;10.30;6.28;;;19.80;64.80;;;;;;4999419;28;20046;-48
2023/10/12 03:29:45;;;;;;;10.65;5.95;;;19.70;64.60;;;;;;4988837;28;20038;-46
2023/10/12 03:32:23;;;;;;;8.98;6.05;;;19.70;64.80;;;;;;4990844;28;20523;-47
2023/10/12 03:37:18;;;;;;;10.15;6.50;;;19.60;65.40;;;;;;4991453;28;20437;-46
2023/10/12 03:48:03;;;;;;;8.35;6.30;;;19.60;66.50;;;;;;4969735;28;20519;-45
2023/10/12 03:50:57;;;;;;;8.65;6.47;;;19.60;65.50;;;;;;4991516;28;20056;-46
2023/10/12 03:53:26;;;;;;;9.93;6.83;;;19.60;65.90;;;;;;4985110;28;20125;-46
2023/10/12 03:56:02;;;;;;;7.57;5.93;;;19.60;65.70;;;;;;4986811;28;20813;-45
2023/10/12 03:58:38;;;;;;;10.75;7.50;;;19.60;66.00;;;;;;4986868;28;20113;-48
2023/10/12 04:01:13;;;;;;;10.70;7.38;;;19.60;66.00;;;;;;4988060;28;20088;-45
2023/10/12 04:03:43;;;;;;;9.65;6.78;;;19.60;66.10;;;;;;4989065;28;20079;-46
2023/10/12 04:06:15;;;;;;;8.57;5.63;;;19.60;66.00;;;;;;4989162;28;20042;-46
2023/10/12 04:09:20;;;;;;;11.73;6.78;;;19.60;66.50;;;;;;4990661;28;20054;-49
2023/10/12 04:11:49;;;;;;;10.02;6.45;;;19.60;66.30;;;;;;4982210;28;20059;-45
2023/10/12 04:17:17;;;;;;;9.77;5.82;;;19.60;66.40;;;;;;4989426;28;20046;-46
2023/10/12 04:20:00;;;;;;;8.98;6.45;;;19.60;66.50;;;;;;4985569;28;20090;-48
2023/10/12 04:22:27;;;;;;;11.52;6.68;;;19.60;67.20;;;;;;4975670;28;20068;-47
2023/10/12 04:24:59;;;;;;;11.38;6.28;;;19.60;66.70;;;;;;4990432;28;20085;-46
2023/10/12 04:30:01;;;;;;;13.65;6.82;;;19.60;66.80;;;;;;4990203;28;20046;-46
2023/10/12 04:43:39;;;;;;;11.65;7.35;;;19.50;67.00;;;;;;4987218;28;20149;-47
2023/10/12 04:48:43;;;;;;;8.65;7.10;;;19.50;66.90;;;;;;4989682;28;20043;-47
2023/10/12 04:51:19;;;;;;;9.68;6.22;;;19.50;67.20;;;;;;4989151;28;20054;-46
2023/10/12 04:54:15;;;;;;;11.68;6.57;;;19.50;67.20;;;;;;4986256;28;20049;-45
2023/10/12 04:56:57;;;;;;;15.18;6.50;;;19.40;67.10;;;;;;4987458;28;20071;-48
2023/10/12 04:59:29;;;;;;;9.15;7.05;;;19.50;67.30;;;;;;4988378;28;20093;-45
2023/10/12 05:09:51;;;;;;;10.48;6.50;;;19.40;68.10;;;;;;4987906;28;20089;-46
2023/10/12 05:12:27;;;;;;;10.60;7.05;;;19.40;68.30;;;;;;4987407;28;20054;-45
2023/10/12 05:14:59;;;;;;;8.52;7.03;;;19.40;68.30;;;;;;4989986;28;20529;-46
2023/10/12 05:17:33;;;;;;;8.37;6.73;;;19.40;68.70;;;;;;4989345;28;20106;-47
2023/10/12 05:20:03;;;;;;;10.77;6.63;;;19.40;68.70;;;;;;4987333;28;20521;-49
2023/10/12 05:22:37;;;;;;;8.50;6.75;;;19.40;68.20;;;;;;4984857;28;20936;-47
2023/10/12 05:25:04;;;;;;;8.50;6.47;;;19.40;68.10;;;;;;4982391;28;20046;-50
2023/10/12 05:28:13;;;;;;;7.47;6.32;;;19.40;68.40;;;;;;4985026;28;20125;-47
2023/10/12 05:30:31;;;;;;;7.68;6.05;;;19.40;68.40;;;;;;4996552;28;20050;-46
2023/10/12 05:33:06;;;;;;;8.25;6.20;;;19.40;68.40;;;;;;4988596;28;20096;-47
2023/10/12 05:35:50;;;;;;;9.85;7.05;;;19.50;68.30;;;;;;4981353;28;20700;-45
2023/10/12 05:38:18;;;;;;;10.55;6.80;;;19.50;68.30;;;;;;4980870;28;20050;-48
2023/10/12 05:40:53;;;;;;;7.45;6.65;;;19.50;68.40;;;;;;4987810;28;20050;-48
2023/10/12 05:43:22;;;;;;;7.18;6.25;;;19.40;68.30;;;;;;4989933;28;20129;-46
2023/10/12 05:46:01;;;;;;;10.15;6.30;;;19.50;68.60;;;;;;4990138;28;20073;-48
2023/10/12 05:48:33;;;;;;;9.27;6.10;;;19.50;68.90;;;;;;4988819;28;20054;-45
2023/10/12 05:51:03;;;;;;;8.02;5.80;;;19.40;68.50;;;;;;4989784;28;20530;-47
2023/10/12 05:53:32;;;;;;;7.35;5.95;;;19.40;68.30;;;;;;4990616;28;20056;-47
2023/10/12 05:56:05;;;;;;;13.30;6.82;;;19.40;68.60;;;;;;4987861;28;20042;-46
2023/10/12 05:58:40;;;;;;;10.10;6.40;;;19.40;68.80;;;;;;4989150;28;20050;-46
2023/10/12 06:01:08;;;;;;;9.55;6.03;;;19.40;68.70;;;;;;4985548;28;20558;-47
2023/10/12 06:03:46;;;;;;;11.55;6.35;;;19.40;68.60;;;;;;4992191;28;20054;-46
2023/10/12 06:06:15;;;;;;;7.40;5.82;;;19.40;68.60;;;;;;4982338;28;20125;-47
2023/10/12 06:08:52;;;;;;;10.38;6.22;;;19.40;68.40;;;;;;4991513;28;20404;-46
2023/10/12 06:11:26;;;;;;;9.07;5.90;;;19.40;68.60;;;;;;4990272;28;20563;-46
2023/10/12 06:13:53;;;;;;;9.93;5.95;;;19.40;68.80;;;;;;4992110;28;20050;-49
2023/10/12 06:16:20;;;;;;;9.77;6.13;;;19.40;68.90;;;;;;4986696;28;20134;-46
2023/10/12 06:18:49;;;;;;;8.02;5.75;;;19.40;68.80;;;;;;4991453;28;20126;-46
2023/10/12 06:21:18;;;;;;;11.63;6.10;;;19.40;68.80;;;;;;4986464;28;20062;-48
2023/10/12 06:23:53;;;;;;;11.30;6.80;;;19.40;69.10;;;;;;4992567;28;20049;-46
2023/10/12 06:26:34;;;;;;;8.23;5.88;;;19.40;69.10;;;;;;4982541;28;20046;-46
2023/10/12 06:29:01;;;;;;;9.27;6.50;;;19.40;69.00;;;;;;4993509;28;20108;-45
2023/10/12 06:31:29;;;;;;;8.65;6.82;;;19.50;68.70;;;;;;4988055;28;20125;-50
2023/10/12 06:34:03;;;;;;;7.60;6.55;;;19.40;68.80;;;;;;4990008;28;20038;-48
2023/10/12 06:36:37;;;;;;;10.15;7.03;;;19.50;68.80;;;;;;4987387;28;20537;-46
2023/10/12 06:47:23;;;;;;;9.93;6.90;;;19.50;68.80;;;;;;4985739;28;20133;-46
2023/10/12 06:49:52;;;;;;;9.80;6.28;;;19.50;69.00;;;;;;4987238;28;20047;-48
2023/10/12 06:52:25;;;;;;;10.02;7.03;;;19.60;68.80;;;;;;4986899;28;20047;-46
2023/10/12 06:54:59;;;;;;;11.48;7.25;;;19.60;69.20;;;;;;4988305;28;20094;-46
2023/10/12 07:02:34;;;;;;;12.60;7.45;;;19.60;68.70;;;;;;4985415;28;20042;-48
2023/10/12 07:05:04;;;;;;;8.43;6.15;;;19.60;68.80;;;;;;4986374;28;20053;-46
2023/10/12 07:07:43;;;;;;;10.25;6.20;;;19.60;68.90;;;;;;4991240;28;20054;-49
2023/10/12 07:10:27;;;;;;;7.72;5.65;;;19.60;68.80;;;;;;4984142;28;20083;-49
2023/10/12 07:12:59;;;;;;;8.82;6.85;;;19.60;68.90;;;;;;4991594;28;20042;-47
2023/10/12 07:15:32;;;;;;;11.05;7.57;;;19.60;68.80;;;;;;4986728;28;20411;-46
2023/10/12 07:18:13;;;;;;;7.70;5.78;;;19.70;68.70;;;;;;4991788;28;20042;-47
2023/10/12 07:20:43;;;;;;;9.02;6.32;;;19.60;68.60;;;;;;4991758;28;20785;-46
2023/10/12 07:23:16;;;;;;;7.68;6.28;;;19.70;68.80;;;;;;4989658;28;20456;-49
2023/10/12 07:25:47;;;;;;;9.27;6.03;;;19.70;68.70;;;;;;4986490;28;20065;-46
2023/10/12 07:28:18;;;;;;;8.63;6.25;;;19.70;68.70;;;;;;4990039;28;20070;-46
2023/10/12 07:33:33;;;;;;;12.57;7.20;;;19.70;68.80;;;;;;4987219;28;20038;-49
2023/10/12 07:36:17;;;;;;;7.53;6.18;;;19.70;68.60;;;;;;4986398;28;20042;-49
2023/10/12 07:38:55;;;;;;;7.53;6.18;;;19.70;69.10;;;;;;4983345;28;20122;-46
2023/10/12 07:41:33;;;;;;;8.88;5.90;;;19.70;69.00;;;;;;4983428;28;20042;-46
2023/10/12 07:44:00;;;;;;;9.75;5.63;;;19.70;68.80;;;;;;4991321;28;20108;-46
2023/10/12 07:46:29;;;;;;;13.38;6.78;;;19.70;68.80;;;;;;4982967;28;20105;-45
2023/10/12 07:49:22;;;;;;;12.48;6.22;;;19.70;68.80;;;;;;4987704;28;20070;-46
2023/10/12 07:57:22;;;;;;;10.48;6.53;;;19.80;68.60;;;;;;4986201;28;20044;-46
2023/10/12 08:13:15;;;;;;;9.43;5.75;;;19.90;69.00;;;;;;4988163;28;20105;-48
2023/10/12 08:24:10;;;;;;;7.50;5.03;;;20.00;68.80;;;;;;4989173;28;20105;-46
2023/10/12 08:32:02;;;;;;;9.52;6.07;;;20.10;68.80;;;;;;4982725;28;20050;-46
2023/10/12 08:45:15;;;;;;;9.57;5.72;;;20.40;68.40;;;;;;4981807;28;20045;-47
2023/10/12 08:47:49;;;;;;;7.47;5.43;;;20.40;68.00;;;;;;4979257;28;20140;-50
2023/10/12 08:52:52;;;;;;;10.40;6.20;;;20.50;68.20;;;;;;4980629;28;20042;-50
2023/10/12 08:55:31;;;;;;;7.72;5.10;;;20.50;68.60;;;;;;4976594;28;20121;-46
2023/10/12 08:58:03;;;;;;;7.78;5.32;;;20.60;68.40;;;;;;4980806;28;20093;-46
2023/10/12 09:04:00;;;;;;;7.95;5.80;;;20.70;68.20;;;;;;4987482;28;20046;-49
2023/10/12 09:06:07;;;;;;;10.88;5.78;;;20.70;68.50;;;;;;4973993;28;20121;-46
2023/10/12 09:11:03;;;;;;;9.13;5.53;;;20.90;68.40;;;;;;4980978;28;20041;-50
2023/10/12 09:13:35;;;;;;;7.25;4.95;;;21.00;68.50;;;;;;4975645;28;20046;-49
2023/10/12 09:16:05;;;;;;;7.80;5.22;;;21.00;68.10;;;;;;4984375;28;20046;-47
2023/10/12 09:18:43;;;;;;;11.13;6.20;;;21.10;67.80;;;;;;4988540;28;20117;-46
2023/10/12 09:21:23;;;;;;;7.75;5.50;;;21.20;67.40;;;;;;4982020;28;20129;-46
2023/10/12 09:26:55;;;;;;;8.27;5.43;;;21.30;67.30;;;;;;4981593;28;20042;-49
2023/10/12 09:29:28;;;;;;;9.07;5.93;;;21.40;66.90;;;;;;4986475;28;20054;-50
2023/10/12 09:32:19;;;;;;;7.22;5.60;;;21.50;67.00;;;;;;4983563;28;20042;-49
2023/10/12 09:35:13;;;;;;;8.27;5.53;;;21.50;66.70;;;;;;4981055;28;20456;-49
2023/10/12 09:37:45;;;;;;;9.52;5.53;;;21.60;66.80;;;;;;4987950;28;20149;-48
2023/10/12 09:40:35;;;;;;;9.52;5.15;;;21.70;66.40;;;;;;4975304;28;20050;-48
2023/10/12 09:43:06;;;;;;;9.40;5.60;;;21.80;66.20;;;;;;4979279;28;20085;-46
2023/10/12 09:45:41;;;;;;;9.52;5.95;;;21.90;66.00;;;;;;4987695;28;20129;-46
2023/10/12 09:48:12;;;;;;;7.88;5.25;;;21.90;65.90;;;;;;4984809;28;20092;-49
2023/10/12 09:50:40;;;;;;;9.18;5.05;;;22.00;66.10;;;;;;4983557;28;20132;-49
2023/10/12 09:53:21;;;;;;;7.30;5.45;;;22.10;66.00;;;;;;4987820;28;20137;-49
2023/10/12 09:56:04;;;;;;;8.70;5.30;;;22.10;66.10;;;;;;4978173;28;20093;-48
2023/10/12 09:58:33;;;;;;;7.22;5.30;;;22.20;65.60;;;;;;4982936;28;20121;-47
2023/10/12 10:01:15;;;;;;;9.55;5.07;;;22.30;65.00;;;;;;4983895;28;20054;-46
2023/10/12 10:03:48;;;;;;;9.32;6.03;;;22.40;64.80;;;;;;4985871;28;20041;-47
2023/10/12 10:06:37;;;;;;;9.70;5.88;;;22.50;64.80;;;;;;4980163;28;20538;-49
2023/10/12 10:09:10;;;;;;;7.22;5.65;;;22.60;64.60;;;;;;4988350;28;20121;-48
2023/10/12 10:11:41;;;;;;;7.80;4.78;;;22.60;64.60;;;;;;4980602;28;20160;-51
2023/10/12 10:14:20;;;;;;;7.13;5.63;;;22.70;64.20;;;;;;4987555;28;20054;-47
2023/10/12 10:16:58;;;;;;;7.72;5.78;;;22.70;63.40;;;;;;4984103;28;20046;-48
2023/10/12 10:19:30;;;;;;;11.30;5.25;;;22.80;63.30;;;;;;4979342;28;20445;-46
2023/10/12 10:22:07;;;;;;;9.07;5.05;;;22.80;63.50;;;;;;4987044;28;20085;-49
2023/10/12 10:24:46;;;;;;;7.18;4.80;;;22.90;63.30;;;;;;4987039;28;20125;-50
2023/10/12 10:27:15;;;;;;;6.13;4.93;;;22.90;62.20;;;;;;4983238;28;20077;-47
2023/10/12 10:29:53;;;;;;;7.57;5.22;;;22.90;62.60;;;;;;4989387;28;20097;-46
2023/10/12 10:32:36;;;;;;;8.07;4.85;;;23.00;62.80;;;;;;4990736;28;20045;-46
2023/10/12 10:35:18;;;;;;;9.00;5.45;;;23.00;62.50;;;;;;4990536;28;20046;-46
2023/10/12 10:37:59;;;;;;;10.10;5.40;;;23.00;62.70;;;;;;4989175;28;20057;-46
2023/10/12 10:40:48;;;;;;;10.15;4.95;;;23.10;62.20;;;;;;4983123;28;20195;-45
2023/10/12 10:43:18;;;;;;;14.60;5.25;;;23.10;61.70;;;;;;4977223;28;20046;-47
2023/10/12 10:45:56;;;;;;;6.95;4.90;;;23.10;61.50;;;;;;4986385;28;20104;-49
2023/10/12 10:48:27;;;;;;;10.35;4.95;;;23.10;61.50;;;;;;4978106;28;20054;-46
2023/10/12 10:51:32;;;;;;;7.78;4.72;;;23.10;61.90;;;;;;4981191;28;20050;-45
2023/10/12 10:54:00;;;;;;;8.05;4.72;;;23.10;61.70;;;;;;4980360;28;20405;-47
2023/10/12 10:59:02;;;;;;;7.75;5.13;;;23.10;61.30;;;;;;4991001;28;20509;-46
2023/10/12 11:01:34;;;;;;;6.82;4.45;;;23.10;61.30;;;;;;4991939;28;20038;-48
2023/10/12 11:04:07;;;;;;;9.10;5.05;;;23.10;61.10;;;;;;4989019;28;20062;-46
2023/10/12 11:06:39;;;;;;;6.60;4.50;;;23.10;60.70;;;;;;4986737;28;20393;-48
2023/10/12 11:09:11;;;;;;;7.95;4.53;;;23.10;60.80;;;;;;4991623;28;20042;-46
2023/10/12 11:11:48;;;;;;;9.13;5.28;;;23.10;60.60;;;;;;4992578;28;20624;-46
2023/10/12 11:14:18;;;;;;;7.32;4.68;;;23.10;60.70;;;;;;4989838;28;20085;-46
2023/10/12 11:16:54;;;;;;;8.50;4.90;;;23.10;60.80;;;;;;4988471;28;20125;-47
2023/10/12 11:19:27;;;;;;;8.40;4.68;;;23.10;61.00;;;;;;4985842;28;20065;-47
2023/10/12 11:21:57;;;;;;;6.70;4.70;;;23.10;60.40;;;;;;4991694;28;20039;-46
2023/10/12 11:24:24;;;;;;;6.15;4.53;;;23.00;60.30;;;;;;4987809;28;20038;-45
2023/10/12 11:26:56;;;;;;;7.35;4.57;;;22.90;60.00;;;;;;4986483;28;20046;-48
2023/10/12 11:29:25;;;;;;;6.30;4.43;;;22.90;59.90;;;;;;4992684;28;20050;-47
2023/10/12 11:32:08;;;;;;;7.78;4.75;;;22.80;60.20;;;;;;4991478;28;20046;-48
2023/10/12 11:34:41;;;;;;;5.90;4.22;;;22.80;60.70;;;;;;4992318;28;20049;-46
2023/10/12 11:37:13;;;;;;;6.60;4.70;;;22.70;60.40;;;;;;4986201;28;20154;-50
2023/10/12 11:39:41;;;;;;;7.95;4.78;;;22.70;60.30;;;;;;4992794;28;20042;-47
2023/10/12 11:42:12;;;;;;;8.43;4.32;;;22.60;60.40;;;;;;4986447;28;20416;-48
2023/10/12 11:44:46;;;;;;;8.32;4.18;;;22.60;60.80;;;;;;4988328;28;20052;-46
2023/10/12 11:47:33;;;;;;;6.70;4.22;;;22.60;60.90;;;;;;4990824;28;20055;-47
2023/10/12 11:50:00;;;;;;;4.72;4.25;;;22.50;61.30;;;;;;4991650;28;20408;-46
2023/10/12 11:52:32;;;;;;;6.60;4.15;;;22.50;61.90;;;;;;4987321;28;20122;-45
2023/10/12 11:55:07;;;;;;;5.05;4.25;;;22.50;62.70;;;;;;4990668;28;20445;-46
2023/10/12 11:57:37;;;;;;;5.35;4.50;;;22.60;63.50;;;;;;4983977;28;20069;-45
2023/10/12 12:02:59;;;;;;;5.45;4.68;;;22.70;63.50;;;;;;4990135;28;20042;-47
2023/10/12 12:05:30;;;;;;;5.78;3.80;;;22.70;63.40;;;;;;4988593;28;20049;-47
2023/10/12 12:08:05;;;;;;;7.78;5.32;;;22.80;62.90;;;;;;4990898;28;20412;-47
2023/10/12 12:10:56;;;;;;;8.32;4.65;;;22.80;62.50;;;;;;4986408;28;20398;-46
2023/10/12 12:13:28;;;;;;;9.38;4.80;;;22.80;62.50;;;;;;4984137;28;20038;-46
2023/10/12 12:15:57;;;;;;;6.60;4.65;;;22.80;62.80;;;;;;4986694;28;20066;-46
2023/10/12 12:18:27;;;;;;;6.43;4.45;;;22.80;63.00;;;;;;4981423;28;20035;-46
2023/10/12 12:20:58;;;;;;;11.50;5.20;;;22.80;63.20;;;;;;4988973;28;20112;-46
2023/10/12 12:23:28;;;;;;;8.65;5.00;;;22.80;63.30;;;;;;4984804;28;20118;-47
2023/10/12 12:26:14;;;;;;;8.98;5.10;;;22.70;63.60;;;;;;4985730;28;20121;-46
2023/10/12 12:28:44;;;;;;;8.60;5.00;;;22.80;63.50;;;;;;4985974;28;20460;-46
2023/10/12 12:31:16;;;;;;;7.35;4.85;;;22.80;63.40;;;;;;4986783;28;20054;-47
2023/10/12 12:33:47;;;;;;;9.52;4.60;;;22.80;63.50;;;;;;4990819;28;20089;-48
2023/10/12 12:36:21;;;;;;;12.43;5.97;;;22.80;63.20;;;;;;4990189;28;20038;-48
2023/10/12 12:38:51;;;;;;;8.88;5.20;;;22.80;62.70;;;;;;4989832;28;20042;-46
2023/10/12 12:41:18;;;;;;;6.88;5.18;;;22.80;63.20;;;;;;4985618;28;20047;-45
2023/10/12 12:43:46;;;;;;;6.97;4.72;;;22.80;63.50;;;;;;4985547;28;20133;-46
2023/10/12 12:46:17;;;;;;;6.35;4.50;;;22.80;63.20;;;;;;4988640;28;20109;-46
2023/10/12 12:48:48;;;;;;;8.90;5.75;;;22.80;62.90;;;;;;4990254;28;20046;-49
2023/10/12 12:51:16;;;;;;;6.67;5.43;;;22.80;62.50;;;;;;4986359;28;20081;-47
2023/10/12 12:53:51;;;;;;;5.40;4.05;;;22.70;62.40;;;;;;4991122;28;20531;-47
2023/10/12 12:56:22;;;;;;;7.30;5.18;;;22.80;62.40;;;;;;4984351;28;20128;-48
2023/10/12 12:58:51;;;;;;;5.78;4.68;;;22.70;62.40;;;;;;4990454;28;20500;-46
2023/10/12 13:01:23;;;;;;;7.13;5.27;;;22.70;62.60;;;;;;4989631;28;20468;-46
2023/10/12 13:03:58;;;;;;;7.72;4.47;;;22.70;62.50;;;;;;4988107;28;20045;-48
2023/10/12 13:06:26;;;;;;;7.43;4.20;;;22.60;62.50;;;;;;4987595;28;20058;-46
2023/10/12 13:08:55;;;;;;;9.10;5.85;;;22.60;62.60;;;;;;4989983;28;20053;-46
2023/10/12 13:11:22;;;;;;;6.15;5.07;;;22.60;62.80;;;;;;4982666;28;20132;-48
2023/10/12 13:13:50;;;;;;;6.78;4.15;;;22.60;62.70;;;;;;4989510;28;20125;-46
2023/10/12 13:16:17;;;;;;;10.70;4.53;;;22.60;62.80;;;;;;4989603;28;20167;-48
2023/10/12 13:18:48;;;;;;;5.70;4.18;;;22.60;62.80;;;;;;4989829;28;20042;-45
2023/10/12 13:21:22;;;;;;;6.78;5.13;;;22.70;63.00;;;;;;4985655;28;20531;-46
2023/10/12 13:23:49;;;;;;;7.90;4.47;;;22.70;62.70;;;;;;4990835;28;20038;-49
2023/10/12 13:26:22;;;;;;;6.65;5.00;;;22.70;63.00;;;;;;4985164;28;20193;-45
2023/10/12 13:28:50;;;;;;;7.50;4.88;;;22.70;62.90;;;;;;4989683;28;20053;-46
2023/10/12 13:31:17;;;;;;;7.05;4.50;;;22.60;62.70;;;;;;4983976;28;20501;-45
2023/10/12 13:33:44;;;;;;;8.77;5.00;;;22.60;62.90;;;;;;4989041;28;20038;-48
2023/10/12 13:36:15;;;;;;;9.98;5.55;;;22.60;62.30;;;;;;4989179;28;20030;-47
2023/10/12 13:38:42;;;;;;;5.35;4.20;;;22.50;62.40;;;;;;4987496;28;20080;-48
2023/10/12 13:41:12;;;;;;;7.55;3.65;;;22.50;62.40;;;;;;4978602;28;20049;-46
2023/10/12 13:43:39;;;;;;;5.97;4.13;;;22.50;62.30;;;;;;4988791;28;20393;-49
2023/10/12 13:46:12;;;;;;;6.03;3.65;;;22.40;62.10;;;;;;4989357;28;20508;-45
2023/10/12 13:48:42;;;;;;;8.73;3.80;;;22.40;62.10;;;;;;4988813;28;20053;-45
2023/10/12 13:51:20;;;;;;;6.85;3.72;;;22.30;62.00;;;;;;4988806;28;20053;-46
2023/10/12 13:53:49;;;;;;;7.82;4.20;;;22.30;62.30;;;;;;4989378;28;20058;-50
2023/10/12 13:56:16;;;;;;;7.13;4.97;;;22.30;62.70;;;;;;4981686;28;20038;-46
2023/10/12 13:58:47;;;;;;;6.43;4.40;;;22.30;62.70;;;;;;4987003;28;20133;-47
2023/10/12 14:01:21;;;;;;;9.63;4.57;;;22.30;62.90;;;;;;4986858;28;20049;-46
2023/10/12 14:03:55;;;;;;;6.97;4.55;;;22.40;63.00;;;;;;4987670;28;20042;-47
2023/10/12 14:06:33;;;;;;;5.13;4.10;;;22.40;62.90;;;;;;4990791;28;20585;-46
2023/10/12 14:08:59;;;;;;;5.82;4.28;;;22.40;62.80;;;;;;4993694;28;20038;-50
2023/10/12 14:11:26;;;;;;;8.65;4.80;;;22.50;62.60;;;;;;4993354;28;20467;-46
2023/10/12 14:13:53;;;;;;;5.82;4.30;;;22.60;62.30;;;;;;4991237;28;20061;-47
2023/10/12 14:16:19;;;;;;;7.35;4.03;;;22.60;62.10;;;;;;4992956;28;20050;-48
2023/10/12 14:18:49;;;;;;;6.18;4.15;;;22.60;62.00;;;;;;4993638;28;20046;-48
2023/10/12 14:21:16;;;;;;;4.75;4.13;;;22.50;61.80;;;;;;4992782;28;20109;-46
2023/10/12 14:23:47;;;;;;;5.90;4.03;;;22.50;61.90;;;;;;4990199;28;20038;-45
2023/10/12 14:26:24;;;;;;;9.82;4.53;;;22.40;61.60;;;;;;4988733;28;20123;-49
2023/10/12 14:28:53;;;;;;;6.13;4.03;;;22.40;61.80;;;;;;4992889;28;20524;-48
2023/10/12 14:31:20;;;;;;;5.47;4.32;;;22.40;62.10;;;;;;4991097;28;20069;-46
2023/10/12 14:33:51;;;;;;;6.72;4.13;;;22.30;62.10;;;;;;4993357;28;20120;-47
2023/10/12 14:36:18;;;;;;;4.60;3.53;;;22.20;62.10;;;;;;4992205;28;20052;-50
2023/10/12 14:38:47;;;;;;;6.35;3.70;;;22.20;62.40;;;;;;4991877;28;20113;-47
2023/10/12 14:41:16;;;;;;;5.25;4.25;;;22.20;62.90;;;;;;4991382;28;20555;-47
2023/10/12 14:43:52;;;;;;;7.30;4.25;;;22.10;62.40;;;;;;4992152;28;20039;-48
2023/10/12 14:46:20;;;;;;;10.90;4.30;;;22.10;62.60;;;;;;4990284;28;20115;-46
2023/10/12 14:48:51;;;;;;;4.43;4.00;;;22.10;62.80;;;;;;4989341;28;20035;-47
2023/10/12 14:51:29;;;;;;;5.20;4.10;;;22.10;62.80;;;;;;4992020;28;20060;-45
2023/10/12 14:54:03;;;;;;;5.20;3.95;;;22.10;62.90;;;;;;4992216;28;20126;-46
2023/10/12 14:56:30;;;;;;;5.88;4.05;;;22.10;63.00;;;;;;4978051;28;20129;-51
2023/10/12 14:58:57;;;;;;;6.18;3.80;;;22.10;63.10;;;;;;4987294;28;20090;-48
2023/10/12 15:01:33;;;;;;;8.23;4.10;;;22.10;63.10;;;;;;4983985;28;20153;-50
2023/10/12 15:04:00;;;;;;;8.10;4.38;;;22.10;63.20;;;;;;4984121;28;20460;-50
2023/10/12 15:06:31;;;;;;;7.22;4.28;;;22.10;62.80;;;;;;4986981;28;20046;-50
2023/10/12 15:08:58;;;;;;;7.90;5.13;;;22.10;62.90;;;;;;4985145;28;20049;-49
2023/10/12 15:11:25;;;;;;;7.00;4.55;;;22.10;62.60;;;;;;4978481;28;20097;-49
2023/10/12 15:13:53;;;;;;;9.80;5.18;;;22.00;62.60;;;;;;4984434;28;20050;-49
2023/10/12 15:16:26;;;;;;;7.53;5.07;;;22.00;62.70;;;;;;4985402;28;20096;-51
2023/10/12 15:18:53;;;;;;;5.72;4.47;;;22.00;62.90;;;;;;4986157;28;20039;-47
2023/10/12 15:21:21;;;;;;;6.95;4.32;;;21.90;63.00;;;;;;4986150;28;20038;-51
2023/10/12 15:23:57;;;;;;;7.57;5.03;;;21.90;63.20;;;;;;4987723;28;20049;-49
2023/10/12 15:26:25;;;;;;;9.50;4.30;;;21.90;63.30;;;;;;4979413;28;20065;-47
2023/10/12 15:28:53;;;;;;;7.25;4.97;;;21.90;63.40;;;;;;4987827;28;20098;-51
2023/10/12 15:31:22;;;;;;;5.55;4.63;;;21.90;63.70;;;;;;4971671;28;20502;-50
2023/10/12 15:33:51;;;;;;;6.75;4.65;;;21.80;64.00;;;;;;4979256;28;20054;-47
2023/10/12 15:36:23;;;;;;;7.63;4.87;;;21.80;64.40;;;;;;4983546;28;20554;-49
2023/10/12 15:38:54;;;;;;;7.97;4.95;;;21.80;64.50;;;;;;4987966;28;20281;-50
2023/10/12 15:41:23;;;;;;;;;;;21.70;64.70;;;;;;4974573;28;20526;-49
2023/10/12 15:43:51;;;;;;;8.07;5.40;;;21.70;64.30;;;;;;4986491;28;19933;-51